createdAt,value
2019-05-10T00:02:09.918Z,6.17
2019-05-10T00:07:41.137Z,6.57
2019-05-10T00:13:10.982Z,6.00
2019-05-10T00:18:17.712Z,6.30
2019-05-10T00:23:25.814Z,6.50
2019-05-10T00:28:35.562Z,6.60
2019-05-10T00:33:44.377Z,5.77
2019-05-10T00:38:53.205Z,6.20
2019-05-10T00:44:08.351Z,6.07
2019-05-10T00:49:16.165Z,7.03
2019-05-10T00:54:26.124Z,7.03
2019-05-10T00:59:32.872Z,6.70
2019-05-10T01:04:48.505Z,8.47
2019-05-10T01:09:56.718Z,8.30
2019-05-10T01:15:04.456Z,8.03
2019-05-10T01:20:16.327Z,8.23
2019-05-10T01:25:34.830Z,9.03
2019-05-10T01:30:43.121Z,8.10
2019-05-10T01:36:10.892Z,9.17
2019-05-10T01:41:19.080Z,9.73
2019-05-10T01:46:26.732Z,10.47
2019-05-10T01:51:37.923Z,11.03
2019-05-10T01:56:47.520Z,10.43
2019-05-10T02:01:59.825Z,11.40
2019-05-10T02:07:08.272Z,12.90
2019-05-10T02:12:17.584Z,12.60
2019-05-10T02:17:27.525Z,13.67
2019-05-10T02:22:37.625Z,10.93
2019-05-10T02:27:47.271Z,10.87
2019-05-10T02:32:58.504Z,8.20
2019-05-10T02:38:03.892Z,8.77
2019-05-10T02:43:11.313Z,8.50
2019-05-10T02:48:17.920Z,7.00
2019-05-10T02:53:29.058Z,7.70
2019-05-10T02:58:38.964Z,7.57
2019-05-10T03:03:50.236Z,8.03
2019-05-10T03:09:01.674Z,8.63
2019-05-10T03:14:14.049Z,9.47
2019-05-10T03:19:24.945Z,8.90
2019-05-10T03:24:36.554Z,8.30
2019-05-10T03:29:47.218Z,6.73
2019-05-10T03:34:57.233Z,6.80
2019-05-10T03:40:08.073Z,5.80
2019-05-10T03:45:15.047Z,6.27
2019-05-10T03:50:22.690Z,5.93
2019-05-10T03:55:33.984Z,6.37
2019-05-10T04:00:42.453Z,5.37
2019-05-10T04:05:47.860Z,5.60
2019-05-10T04:10:56.605Z,6.17
2019-05-10T04:16:02.459Z,5.07
2019-05-10T04:21:07.759Z,5.73
2019-05-10T04:26:18.830Z,5.77
2019-05-10T04:31:28.943Z,5.73
2019-05-10T04:36:41.736Z,5.20
2019-05-10T04:41:50.922Z,4.57
2019-05-10T04:47:00.899Z,4.30
2019-05-10T04:52:10.988Z,5.10
2019-05-10T04:57:18.858Z,6.00
2019-05-10T05:02:28.606Z,6.50
2019-05-10T05:07:36.823Z,7.07
2019-05-10T05:12:42.646Z,6.43
2019-05-10T05:17:55.366Z,6.33
2019-05-10T05:23:04.021Z,7.47
2019-05-10T05:28:11.604Z,8.97
2019-05-10T05:33:23.955Z,9.20
2019-05-10T05:38:33.208Z,9.13
2019-05-10T05:43:45.347Z,9.20
2019-05-10T05:48:46.184Z,9.00
2019-05-10T05:53:52.112Z,8.27
2019-05-10T05:59:08.747Z,6.70
2019-05-10T06:04:14.796Z,7.00
2019-05-10T06:09:26.162Z,6.63
2019-05-10T06:14:34.594Z,5.87
2019-05-10T06:19:42.535Z,5.00
2019-05-10T06:24:54.003Z,5.17
2019-05-10T06:30:03.173Z,5.43
2019-05-10T06:35:14.028Z,4.83
2019-05-10T06:40:32.663Z,5.40
2019-05-10T06:45:39.008Z,4.90
2019-05-10T06:50:44.963Z,4.30
2019-05-10T06:55:57.523Z,4.10
2019-05-10T07:00:59.836Z,3.10
2019-05-10T07:06:13.151Z,3.27
2019-05-10T07:11:27.175Z,2.63
2019-05-10T07:16:38.973Z,3.53
2019-05-10T07:21:51.018Z,3.40
2019-05-10T07:27:02.371Z,3.23
2019-05-10T07:32:10.273Z,3.00
2019-05-10T07:37:21.822Z,2.77
2019-05-10T07:42:31.478Z,2.90
2019-05-10T07:47:37.440Z,3.83
2019-05-10T07:52:45.968Z,4.63
2019-05-10T07:57:59.105Z,3.13
2019-05-10T08:03:15.129Z,2.87
2019-05-10T08:08:22.170Z,2.83
2019-05-10T08:13:30.027Z,3.10
2019-05-10T08:18:42.368Z,2.87
2019-05-10T08:23:51.903Z,2.80
2019-05-10T08:29:01.960Z,3.23
2019-05-10T08:34:11.748Z,2.43
2019-05-10T08:39:22.506Z,2.63
2019-05-10T08:44:29.234Z,3.10
2019-05-10T08:49:46.713Z,3.40
2019-05-10T08:54:55.010Z,3.13
2019-05-10T09:00:08.848Z,2.70
2019-05-10T09:05:13.041Z,2.83
2019-05-10T09:10:24.684Z,2.80
2019-05-10T09:15:34.279Z,2.27
2019-05-10T09:20:42.182Z,2.27
2019-05-10T09:25:51.858Z,2.63
2019-05-10T09:31:16.910Z,2.97
2019-05-10T09:36:25.089Z,3.37
2019-05-10T09:41:36.056Z,2.83
2019-05-10T09:46:42.597Z,2.60
2019-05-10T09:51:52.705Z,2.63
2019-05-10T09:56:59.321Z,2.13
2019-05-10T10:02:26.376Z,2.73
2019-05-10T10:07:33.473Z,2.50
2019-05-10T10:12:41.673Z,2.30
2019-05-10T10:17:51.814Z,2.10
2019-05-10T10:23:02.595Z,2.53
2019-05-10T10:28:17.562Z,2.37
2019-05-10T10:33:29.022Z,2.20
2019-05-10T10:38:45.431Z,2.50
2019-05-10T10:43:53.566Z,2.75
2019-05-10T10:48:59.419Z,2.45
2019-05-10T10:54:07.560Z,2.45
2019-05-10T10:59:18.330Z,1.98
2019-05-10T11:04:30.404Z,2.08
2019-05-10T11:09:43.678Z,2.10
2019-05-10T11:14:52.417Z,2.10
2019-05-10T11:20:01.243Z,2.15
2019-05-10T11:25:12.736Z,2.00
2019-05-10T11:30:21.546Z,2.10
2019-05-10T11:35:34.326Z,2.37
2019-05-10T11:40:38.679Z,2.02
2019-05-10T11:45:47.578Z,1.85
2019-05-10T11:50:55.848Z,2.10
2019-05-10T11:56:07.869Z,2.33
2019-05-10T12:01:19.943Z,2.17
2019-05-10T12:06:25.435Z,2.10
2019-05-10T12:11:43.156Z,2.33
2019-05-10T12:16:47.243Z,2.67
2019-05-10T12:21:56.992Z,2.10
2019-05-10T12:27:18.536Z,2.45
2019-05-10T12:32:11.937Z,2.55
2019-05-10T12:37:20.702Z,2.40
2019-05-10T12:42:27.473Z,3.25
2019-05-10T12:47:36.156Z,3.70
2019-05-10T12:52:50.533Z,3.35
2019-05-10T12:57:55.173Z,3.72
2019-05-10T13:03:12.376Z,3.33
2019-05-10T13:08:16.292Z,3.87
2019-05-10T13:13:29.544Z,3.95
2019-05-10T13:18:50.426Z,4.08
2019-05-10T13:23:53.309Z,3.92
2019-05-10T13:29:10.583Z,4.60
2019-05-10T13:34:24.386Z,4.17
2019-05-10T13:39:37.514Z,4.30
2019-05-10T13:44:45.600Z,4.20
2019-05-10T13:49:51.036Z,4.93
2019-05-10T13:54:58.948Z,3.90
2019-05-10T14:00:10.168Z,4.42
2019-05-10T14:05:20.049Z,4.22
2019-05-10T14:10:26.913Z,4.85
2019-05-10T14:15:36.454Z,4.37
2019-05-10T14:20:44.085Z,4.72
2019-05-10T14:25:51.886Z,4.80
2019-05-10T14:30:59.011Z,4.67
2019-05-10T14:36:05.373Z,5.50
2019-05-10T14:41:13.370Z,4.85
2019-05-10T14:46:22.130Z,5.12
2019-05-10T14:51:40.693Z,5.00
2019-05-10T14:56:41.350Z,5.30
2019-05-10T15:01:50.569Z,5.55
2019-05-10T15:06:59.089Z,5.22
2019-05-10T15:12:10.243Z,4.70
2019-05-10T15:17:20.051Z,4.70
2019-05-10T15:22:27.415Z,4.80
2019-05-10T15:27:36.703Z,4.50
2019-05-10T15:32:46.364Z,4.67
2019-05-10T15:37:58.143Z,5.03
2019-05-10T15:43:10.391Z,4.83
2019-05-10T15:48:20.006Z,6.73
2019-05-10T15:53:28.320Z,5.73
2019-05-10T15:58:40.467Z,5.60
2019-05-10T16:03:47.199Z,5.30
2019-05-10T16:08:56.689Z,5.77
2019-05-10T16:14:03.234Z,6.00
2019-05-10T16:19:12.952Z,4.80
2019-05-10T16:24:25.372Z,6.43
2019-05-10T16:29:27.497Z,5.17
2019-05-10T16:34:36.182Z,5.17
2019-05-10T16:39:45.861Z,5.30
2019-05-10T16:44:51.593Z,4.60
2019-05-10T16:50:02.323Z,4.43
2019-05-10T16:55:12.879Z,4.17
2019-05-10T17:00:21.917Z,5.33
2019-05-10T17:05:31.327Z,4.80
2019-05-10T17:10:40.317Z,4.43
2019-05-10T17:15:53.049Z,4.37
2019-05-10T17:21:02.675Z,3.77
2019-05-10T17:26:08.402Z,5.07
2019-05-10T17:31:15.739Z,4.40
2019-05-10T17:36:29.349Z,4.50
2019-05-10T17:41:37.723Z,3.67
2019-05-10T17:46:55.164Z,4.03
2019-05-10T17:52:01.358Z,4.00
2019-05-10T17:57:16.622Z,3.73
2019-05-10T18:02:21.723Z,3.60
2019-05-10T18:07:30.598Z,3.00
2019-05-10T18:12:36.577Z,3.50
2019-05-10T18:17:42.402Z,3.80
2019-05-10T18:22:54.235Z,4.03
2019-05-10T18:28:04.608Z,4.00
2019-05-10T18:33:14.179Z,3.83
2019-05-10T18:38:21.871Z,3.73
2019-05-10T18:43:28.753Z,3.50
2019-05-10T18:48:36.329Z,5.13
2019-05-10T18:53:44.110Z,7.53
2019-05-10T18:58:51.224Z,5.37
2019-05-10T19:04:01.374Z,4.87
2019-05-10T19:09:12.094Z,5.57
2019-05-10T19:14:18.383Z,5.10
2019-05-10T19:19:27.059Z,11.07
2019-05-10T19:24:32.419Z,6.37
2019-05-10T19:29:45.952Z,5.50
2019-05-10T19:34:47.788Z,6.00
2019-05-10T19:39:57.771Z,5.60
2019-05-10T19:45:06.085Z,4.63
2019-05-10T19:50:15.853Z,5.43
2019-05-10T19:55:26.103Z,5.87
2019-05-10T20:00:35.201Z,10.30
2019-05-10T20:05:42.834Z,6.63
2019-05-10T20:10:51.432Z,6.03
2019-05-10T20:15:57.121Z,6.20
2019-05-10T20:21:05.884Z,5.83
2019-05-10T20:26:14.257Z,5.60
2019-05-10T20:31:24.862Z,6.47
2019-05-10T20:36:32.950Z,6.93
2019-05-10T20:41:40.467Z,9.00
2019-05-10T20:46:48.454Z,8.90
2019-05-10T20:51:54.704Z,7.37
2019-05-10T20:57:05.446Z,123.73
2019-05-10T21:02:14.501Z,89.20
2019-05-10T21:07:27.882Z,54.60
2019-05-10T21:12:34.108Z,59.83
2019-05-10T21:17:44.269Z,39.73
2019-05-10T21:22:52.690Z,34.20
2019-05-10T21:28:02.987Z,37.87
2019-05-10T21:33:09.500Z,17.90
2019-05-10T21:38:15.780Z,27.00
2019-05-10T21:43:24.521Z,16.57
2019-05-10T21:48:38.087Z,23.40
2019-05-10T21:53:45.489Z,10.43
2019-05-10T21:58:53.394Z,10.90
2019-05-10T22:03:58.634Z,15.57
2019-05-10T22:09:07.736Z,14.20
2019-05-10T22:14:14.444Z,20.43
2019-05-10T22:19:20.990Z,21.73
2019-05-10T22:24:34.247Z,12.23
2019-05-10T22:29:41.636Z,13.27
2019-05-10T22:34:50.020Z,12.37
2019-05-10T22:39:56.894Z,11.97
2019-05-10T22:45:08.170Z,10.83
2019-05-10T22:50:16.597Z,11.53
2019-05-10T22:55:26.298Z,9.33
2019-05-10T23:00:36.298Z,9.57
2019-05-10T23:05:44.364Z,8.70
2019-05-10T23:10:53.358Z,9.30
2019-05-10T23:16:00.532Z,8.87
2019-05-10T23:21:11.686Z,8.57
2019-05-10T23:26:18.002Z,8.40
2019-05-10T23:31:23.036Z,8.80
2019-05-10T23:36:32.513Z,8.90
2019-05-10T23:41:39.006Z,8.00
2019-05-10T23:46:51.291Z,8.27
2019-05-10T23:52:00.344Z,8.00
2019-05-10T23:57:07.860Z,7.40
